sensor_id;sensor_type;location;lat;lon;timestamp;temperature;humidity
34768;DHT22;21755;43.608;1.236;2022-09-03T00:02:30;20.90;99.90
34768;DHT22;21755;43.608;1.236;2022-09-03T00:05:21;20.70;99.90
34768;DHT22;21755;43.608;1.236;2022-09-03T00:08:20;20.70;99.90
34768;DHT22;21755;43.608;1.236;2022-09-03T00:13:26;20.70;99.90
34768;DHT22;21755;43.608;1.236;2022-09-03T00:15:55;20.70;99.90
34768;DHT22;21755;43.608;1.236;2022-09-03T00:18:24;20.70;99.90
34768;DHT22;21755;43.608;1.236;2022-09-03T00:21:03;20.60;99.90
34768;DHT22;21755;43.608;1.236;2022-09-03T00:23:34;20.60;99.90
34768;DHT22;21755;43.608;1.236;2022-09-03T00:28:40;20.50;99.90
34768;DHT22;21755;43.608;1.236;2022-09-03T00:31:28;20.50;99.90
34768;DHT22;21755;43.608;1.236;2022-09-03T00:34:01;20.50;99.90
34768;DHT22;21755;43.608;1.236;2022-09-03T00:36:39;20.70;99.90
34768;DHT22;21755;43.608;1.236;2022-09-03T00:39:18;20.70;99.90
34768;DHT22;21755;43.608;1.236;2022-09-03T00:42:17;20.70;99.90
34768;DHT22;21755;43.608;1.236;2022-09-03T00:45:07;20.60;99.90
34768;DHT22;21755;43.608;1.236;2022-09-03T00:48:09;20.50;99.90
34768;DHT22;21755;43.608;1.236;2022-09-03T00:53:48;20.40;99.90
34768;DHT22;21755;43.608;1.236;2022-09-03T00:59:07;20.20;99.90
34768;DHT22;21755;43.608;1.236;2022-09-03T01:06:57;19.90;99.90
34768;DHT22;21755;43.608;1.236;2022-09-03T01:10:10;19.80;99.90
34768;DHT22;21755;43.608;1.236;2022-09-03T01:12:49;19.80;99.90
34768;DHT22;21755;43.608;1.236;2022-09-03T01:18:13;19.90;99.90
34768;DHT22;21755;43.608;1.236;2022-09-03T01:28:41;19.70;99.90
34768;DHT22;21755;43.608;1.236;2022-09-03T01:31:23;19.80;99.90
34768;DHT22;21755;43.608;1.236;2022-09-03T01:36:54;19.50;99.90
34768;DHT22;21755;43.608;1.236;2022-09-03T01:39:38;19.30;99.90
34768;DHT22;21755;43.608;1.236;2022-09-03T01:50:52;19.40;99.90
34768;DHT22;21755;43.608;1.236;2022-09-03T01:59:13;19.60;99.90
34768;DHT22;21755;43.608;1.236;2022-09-03T02:01:52;19.70;99.90
34768;DHT22;21755;43.608;1.236;2022-09-03T02:04:23;19.70;99.90
34768;DHT22;21755;43.608;1.236;2022-09-03T02:06:53;19.70;99.90
34768;DHT22;21755;43.608;1.236;2022-09-03T02:09:22;19.70;99.90
34768;DHT22;21755;43.608;1.236;2022-09-03T02:11:55;19.60;99.90
34768;DHT22;21755;43.608;1.236;2022-09-03T02:14:25;19.60;99.90
34768;DHT22;21755;43.608;1.236;2022-09-03T02:16:52;19.60;99.90
34768;DHT22;21755;43.608;1.236;2022-09-03T02:19:20;19.60;99.90
34768;DHT22;21755;43.608;1.236;2022-09-03T02:21:50;19.50;99.90
34768;DHT22;21755;43.608;1.236;2022-09-03T02:24:17;19.40;99.90
34768;DHT22;21755;43.608;1.236;2022-09-03T02:26:43;19.40;99.90
34768;DHT22;21755;43.608;1.236;2022-09-03T02:29:09;19.50;99.90
34768;DHT22;21755;43.608;1.236;2022-09-03T02:31:35;19.50;99.90
34768;DHT22;21755;43.608;1.236;2022-09-03T02:34:01;19.50;99.90
34768;DHT22;21755;43.608;1.236;2022-09-03T02:36:31;19.40;99.90
34768;DHT22;21755;43.608;1.236;2022-09-03T02:38:58;19.40;99.90
34768;DHT22;21755;43.608;1.236;2022-09-03T02:41:24;19.40;99.90
34768;DHT22;21755;43.608;1.236;2022-09-03T02:44:21;19.40;99.90
34768;DHT22;21755;43.608;1.236;2022-09-03T02:47:00;19.30;99.90
34768;DHT22;21755;43.608;1.236;2022-09-03T02:49:28;19.30;99.90
34768;DHT22;21755;43.608;1.236;2022-09-03T02:52:05;19.30;99.90
34768;DHT22;21755;43.608;1.236;2022-09-03T02:54:35;19.30;99.90
34768;DHT22;21755;43.608;1.236;2022-09-03T02:57:09;19.40;99.90
34768;DHT22;21755;43.608;1.236;2022-09-03T02:59:35;19.40;99.90
34768;DHT22;21755;43.608;1.236;2022-09-03T03:02:02;19.40;99.90
34768;DHT22;21755;43.608;1.236;2022-09-03T03:04:30;19.40;99.90
34768;DHT22;21755;43.608;1.236;2022-09-03T03:06:56;19.40;99.90
34768;DHT22;21755;43.608;1.236;2022-09-03T03:09:22;19.30;99.90
34768;DHT22;21755;43.608;1.236;2022-09-03T03:11:48;19.40;99.90
34768;DHT22;21755;43.608;1.236;2022-09-03T03:14:15;19.40;99.90
34768;DHT22;21755;43.608;1.236;2022-09-03T03:16:41;19.40;99.90
34768;DHT22;21755;43.608;1.236;2022-09-03T03:19:07;19.40;99.90
34768;DHT22;21755;43.608;1.236;2022-09-03T03:21:33;19.40;99.90
34768;DHT22;21755;43.608;1.236;2022-09-03T03:24:00;19.40;99.90
34768;DHT22;21755;43.608;1.236;2022-09-03T03:26:27;19.40;99.90
34768;DHT22;21755;43.608;1.236;2022-09-03T03:28:58;19.40;99.90
34768;DHT22;21755;43.608;1.236;2022-09-03T03:31:24;19.40;99.90
34768;DHT22;21755;43.608;1.236;2022-09-03T03:33:55;19.30;99.90
34768;DHT22;21755;43.608;1.236;2022-09-03T03:36:23;19.30;99.90
34768;DHT22;21755;43.608;1.236;2022-09-03T03:38:53;19.40;99.90
34768;DHT22;21755;43.608;1.236;2022-09-03T03:41:24;19.20;99.90
34768;DHT22;21755;43.608;1.236;2022-09-03T03:43:55;19.10;99.90
34768;DHT22;21755;43.608;1.236;2022-09-03T03:46:21;19.20;99.90
34768;DHT22;21755;43.608;1.236;2022-09-03T03:48:49;19.20;99.90
34768;DHT22;21755;43.608;1.236;2022-09-03T03:51:15;19.20;99.90
34768;DHT22;21755;43.608;1.236;2022-09-03T03:53:41;19.20;99.90
34768;DHT22;21755;43.608;1.236;2022-09-03T03:56:10;19.30;99.90
34768;DHT22;21755;43.608;1.236;2022-09-03T03:58:36;19.20;99.90
34768;DHT22;21755;43.608;1.236;2022-09-03T04:01:13;19.20;99.90
34768;DHT22;21755;43.608;1.236;2022-09-03T04:03:40;19.20;99.90
34768;DHT22;21755;43.608;1.236;2022-09-03T04:06:07;19.20;99.90
34768;DHT22;21755;43.608;1.236;2022-09-03T04:08:37;19.20;99.90
34768;DHT22;21755;43.608;1.236;2022-09-03T04:11:06;19.20;99.90
34768;DHT22;21755;43.608;1.236;2022-09-03T04:13:34;19.10;99.90
34768;DHT22;21755;43.608;1.236;2022-09-03T04:16:05;19.00;99.90
34768;DHT22;21755;43.608;1.236;2022-09-03T04:18:33;18.90;99.90
34768;DHT22;21755;43.608;1.236;2022-09-03T04:21:08;19.00;99.90
34768;DHT22;21755;43.608;1.236;2022-09-03T04:23:37;19.00;99.90
34768;DHT22;21755;43.608;1.236;2022-09-03T04:26:04;19.00;99.90
34768;DHT22;21755;43.608;1.236;2022-09-03T04:28:31;19.00;99.90
34768;DHT22;21755;43.608;1.236;2022-09-03T04:31:06;18.90;99.90
34768;DHT22;21755;43.608;1.236;2022-09-03T04:33:33;18.80;99.90
34768;DHT22;21755;43.608;1.236;2022-09-03T04:36:11;18.80;99.90
34768;DHT22;21755;43.608;1.236;2022-09-03T04:38:42;18.90;99.90
34768;DHT22;21755;43.608;1.236;2022-09-03T04:41:10;18.80;99.90
34768;DHT22;21755;43.608;1.236;2022-09-03T04:43:37;18.90;99.90
34768;DHT22;21755;43.608;1.236;2022-09-03T04:46:05;18.90;99.90
34768;DHT22;21755;43.608;1.236;2022-09-03T04:48:33;18.90;99.90
34768;DHT22;21755;43.608;1.236;2022-09-03T04:51:08;18.90;99.90
34768;DHT22;21755;43.608;1.236;2022-09-03T04:53:35;18.90;99.90
34768;DHT22;21755;43.608;1.236;2022-09-03T04:56:03;18.90;99.90
34768;DHT22;21755;43.608;1.236;2022-09-03T04:58:35;18.90;99.90
34768;DHT22;21755;43.608;1.236;2022-09-03T05:01:10;18.90;99.90
34768;DHT22;21755;43.608;1.236;2022-09-03T05:03:36;18.90;99.90
34768;DHT22;21755;43.608;1.236;2022-09-03T05:06:03;18.90;99.90
34768;DHT22;21755;43.608;1.236;2022-09-03T05:08:31;18.90;99.90
34768;DHT22;21755;43.608;1.236;2022-09-03T05:11:00;18.90;99.90
34768;DHT22;21755;43.608;1.236;2022-09-03T05:13:26;18.90;99.90
34768;DHT22;21755;43.608;1.236;2022-09-03T05:16:01;18.90;99.90
34768;DHT22;21755;43.608;1.236;2022-09-03T05:18:28;18.90;99.90
34768;DHT22;21755;43.608;1.236;2022-09-03T05:21:09;18.90;99.90
34768;DHT22;21755;43.608;1.236;2022-09-03T05:23:40;18.90;99.90
34768;DHT22;21755;43.608;1.236;2022-09-03T05:26:41;18.90;99.90
34768;DHT22;21755;43.608;1.236;2022-09-03T05:29:02;18.90;99.90
34768;DHT22;21755;43.608;1.236;2022-09-03T05:31:30;18.90;99.90
34768;DHT22;21755;43.608;1.236;2022-09-03T05:33:58;19.00;99.90
34768;DHT22;21755;43.608;1.236;2022-09-03T05:36:27;19.00;99.90
34768;DHT22;21755;43.608;1.236;2022-09-03T05:38:53;19.00;99.90
34768;DHT22;21755;43.608;1.236;2022-09-03T05:41:21;19.00;99.90
34768;DHT22;21755;43.608;1.236;2022-09-03T05:43:51;19.00;99.90
34768;DHT22;21755;43.608;1.236;2022-09-03T05:46:31;18.90;99.90
34768;DHT22;21755;43.608;1.236;2022-09-03T05:49:01;18.90;99.90
34768;DHT22;21755;43.608;1.236;2022-09-03T05:51:28;18.90;99.90
34768;DHT22;21755;43.608;1.236;2022-09-03T05:53:54;18.90;99.90
34768;DHT22;21755;43.608;1.236;2022-09-03T05:56:22;18.90;99.90
34768;DHT22;21755;43.608;1.236;2022-09-03T05:58:51;18.90;99.90
34768;DHT22;21755;43.608;1.236;2022-09-03T06:01:23;19.00;99.90
34768;DHT22;21755;43.608;1.236;2022-09-03T06:03:54;18.90;99.90
34768;DHT22;21755;43.608;1.236;2022-09-03T06:06:21;19.00;99.90
34768;DHT22;21755;43.608;1.236;2022-09-03T06:08:55;18.90;99.90
34768;DHT22;21755;43.608;1.236;2022-09-03T06:11:23;18.90;99.90
34768;DHT22;21755;43.608;1.236;2022-09-03T06:13:53;18.90;99.90
34768;DHT22;21755;43.608;1.236;2022-09-03T06:16:19;18.90;99.90
34768;DHT22;21755;43.608;1.236;2022-09-03T06:18:47;19.00;99.90
34768;DHT22;21755;43.608;1.236;2022-09-03T06:21:13;18.90;99.90
34768;DHT22;21755;43.608;1.236;2022-09-03T06:23:40;18.90;99.90
34768;DHT22;21755;43.608;1.236;2022-09-03T06:28:34;19.00;99.90
34768;DHT22;21755;43.608;1.236;2022-09-03T06:31:01;19.10;99.90
34768;DHT22;21755;43.608;1.236;2022-09-03T06:33:33;19.00;99.90
34768;DHT22;21755;43.608;1.236;2022-09-03T06:36:00;19.20;99.90
34768;DHT22;21755;43.608;1.236;2022-09-03T06:38:29;19.20;99.90
34768;DHT22;21755;43.608;1.236;2022-09-03T06:41:01;19.30;99.90
34768;DHT22;21755;43.608;1.236;2022-09-03T06:43:28;19.30;99.90
34768;DHT22;21755;43.608;1.236;2022-09-03T06:45:56;19.40;99.90
34768;DHT22;21755;43.608;1.236;2022-09-03T06:48:22;19.40;99.90
34768;DHT22;21755;43.608;1.236;2022-09-03T06:50:59;19.40;99.90
34768;DHT22;21755;43.608;1.236;2022-09-03T06:53:28;19.50;99.90
34768;DHT22;21755;43.608;1.236;2022-09-03T06:55:56;19.50;99.90
34768;DHT22;21755;43.608;1.236;2022-09-03T06:58:23;19.50;99.90
34768;DHT22;21755;43.608;1.236;2022-09-03T07:00:49;19.50;99.90
34768;DHT22;21755;43.608;1.236;2022-09-03T07:03:18;19.50;99.90
34768;DHT22;21755;43.608;1.236;2022-09-03T07:05:45;19.50;99.90
34768;DHT22;21755;43.608;1.236;2022-09-03T07:08:11;19.60;99.90
34768;DHT22;21755;43.608;1.236;2022-09-03T07:10:37;19.60;99.90
34768;DHT22;21755;43.608;1.236;2022-09-03T07:13:03;19.70;99.90
34768;DHT22;21755;43.608;1.236;2022-09-03T07:15:32;19.70;99.90
34768;DHT22;21755;43.608;1.236;2022-09-03T07:17:58;19.70;99.90
34768;DHT22;21755;43.608;1.236;2022-09-03T07:20:24;19.80;99.90
34768;DHT22;21755;43.608;1.236;2022-09-03T07:22:49;19.80;99.90
34768;DHT22;21755;43.608;1.236;2022-09-03T07:25:18;20.00;99.90
34768;DHT22;21755;43.608;1.236;2022-09-03T07:27:45;20.00;99.90
34768;DHT22;21755;43.608;1.236;2022-09-03T07:30:12;20.00;99.90
34768;DHT22;21755;43.608;1.236;2022-09-03T07:32:37;20.00;99.90
34768;DHT22;21755;43.608;1.236;2022-09-03T07:35:06;20.10;99.90
34768;DHT22;21755;43.608;1.236;2022-09-03T07:37:32;20.20;99.90
34768;DHT22;21755;43.608;1.236;2022-09-03T07:39:58;20.30;99.90
34768;DHT22;21755;43.608;1.236;2022-09-03T07:42:24;20.40;99.90
34768;DHT22;21755;43.608;1.236;2022-09-03T07:44:51;20.30;99.90
34768;DHT22;21755;43.608;1.236;2022-09-03T07:47:18;20.30;99.90
34768;DHT22;21755;43.608;1.236;2022-09-03T07:49:44;20.30;99.90
34768;DHT22;21755;43.608;1.236;2022-09-03T07:52:11;20.30;99.90
34768;DHT22;21755;43.608;1.236;2022-09-03T07:54:37;20.30;99.90
34768;DHT22;21755;43.608;1.236;2022-09-03T07:57:02;20.30;99.90
34768;DHT22;21755;43.608;1.236;2022-09-03T07:59:29;20.50;99.90
34768;DHT22;21755;43.608;1.236;2022-09-03T08:01:55;20.60;99.90
34768;DHT22;21755;43.608;1.236;2022-09-03T08:04:22;20.60;99.90
34768;DHT22;21755;43.608;1.236;2022-09-03T08:06:48;20.60;99.90
34768;DHT22;21755;43.608;1.236;2022-09-03T08:09:14;20.60;99.90
34768;DHT22;21755;43.608;1.236;2022-09-03T08:11:41;20.80;99.90
34768;DHT22;21755;43.608;1.236;2022-09-03T08:14:11;20.90;99.90
34768;DHT22;21755;43.608;1.236;2022-09-03T08:16:42;21.00;99.90
34768;DHT22;21755;43.608;1.236;2022-09-03T08:19:09;21.10;99.90
34768;DHT22;21755;43.608;1.236;2022-09-03T08:21:35;21.30;99.90
34768;DHT22;21755;43.608;1.236;2022-09-03T08:24:02;21.20;99.90
34768;DHT22;21755;43.608;1.236;2022-09-03T08:26:30;21.30;99.90
34768;DHT22;21755;43.608;1.236;2022-09-03T08:28:57;21.30;99.90
34768;DHT22;21755;43.608;1.236;2022-09-03T08:31:23;21.40;99.90
34768;DHT22;21755;43.608;1.236;2022-09-03T08:33:52;21.60;99.90
34768;DHT22;21755;43.608;1.236;2022-09-03T08:36:27;21.40;99.90
34768;DHT22;21755;43.608;1.236;2022-09-03T08:38:58;21.40;99.90
34768;DHT22;21755;43.608;1.236;2022-09-03T08:50:08;21.80;99.90
34768;DHT22;21755;43.608;1.236;2022-09-03T08:52:32;21.90;99.90
34768;DHT22;21755;43.608;1.236;2022-09-03T08:55:22;22.00;99.90
34768;DHT22;21755;43.608;1.236;2022-09-03T09:00:57;22.40;99.90
34768;DHT22;21755;43.608;1.236;2022-09-03T09:08:48;22.80;99.90
34768;DHT22;21755;43.608;1.236;2022-09-03T09:22:34;23.40;99.90
34768;DHT22;21755;43.608;1.236;2022-09-03T09:25:06;23.60;99.90
34768;DHT22;21755;43.608;1.236;2022-09-03T09:27:34;23.60;99.90
34768;DHT22;21755;43.608;1.236;2022-09-03T09:30:03;23.70;99.90
34768;DHT22;21755;43.608;1.236;2022-09-03T09:32:30;23.80;99.90
34768;DHT22;21755;43.608;1.236;2022-09-03T09:34:58;23.60;99.90
34768;DHT22;21755;43.608;1.236;2022-09-03T09:37:24;23.40;99.90
34768;DHT22;21755;43.608;1.236;2022-09-03T09:39:58;23.40;99.90
34768;DHT22;21755;43.608;1.236;2022-09-03T09:42:24;23.20;99.90
34768;DHT22;21755;43.608;1.236;2022-09-03T09:44:51;23.20;99.90
34768;DHT22;21755;43.608;1.236;2022-09-03T09:47:29;23.20;99.90
34768;DHT22;21755;43.608;1.236;2022-09-03T09:50:00;23.20;99.90
34768;DHT22;21755;43.608;1.236;2022-09-03T09:52:28;23.10;99.90
34768;DHT22;21755;43.608;1.236;2022-09-03T09:55:13;23.40;99.90
34768;DHT22;21755;43.608;1.236;2022-09-03T09:57:39;23.50;99.90
34768;DHT22;21755;43.608;1.236;2022-09-03T10:00:11;23.30;99.90
34768;DHT22;21755;43.608;1.236;2022-09-03T10:02:49;23.30;99.90
34768;DHT22;21755;43.608;1.236;2022-09-03T10:05:26;23.50;99.90
34768;DHT22;21755;43.608;1.236;2022-09-03T10:08:04;23.70;99.90
34768;DHT22;21755;43.608;1.236;2022-09-03T10:10:41;23.60;99.90
34768;DHT22;21755;43.608;1.236;2022-09-03T10:13:12;23.80;99.90
34768;DHT22;21755;43.608;1.236;2022-09-03T10:16:03;23.80;99.90
34768;DHT22;21755;43.608;1.236;2022-09-03T10:21:40;23.80;99.90
34768;DHT22;21755;43.608;1.236;2022-09-03T10:26:55;24.50;99.90
34768;DHT22;21755;43.608;1.236;2022-09-03T10:29:23;24.20;99.90
34768;DHT22;21755;43.608;1.236;2022-09-03T10:35:23;23.90;99.90
34768;DHT22;21755;43.608;1.236;2022-09-03T10:40:39;24.00;99.90
34768;DHT22;21755;43.608;1.236;2022-09-03T10:51:17;24.30;99.90
34768;DHT22;21755;43.608;1.236;2022-09-03T10:56:24;24.40;99.90
34768;DHT22;21755;43.608;1.236;2022-09-03T10:59:16;24.60;99.90
34768;DHT22;21755;43.608;1.236;2022-09-03T11:04:52;24.60;99.90
34768;DHT22;21755;43.608;1.236;2022-09-03T11:07:23;24.90;99.90
34768;DHT22;21755;43.608;1.236;2022-09-03T11:10:05;25.10;99.90
34768;DHT22;21755;43.608;1.236;2022-09-03T11:12:39;25.40;99.90
34768;DHT22;21755;43.608;1.236;2022-09-03T11:15:32;25.70;99.90
34768;DHT22;21755;43.608;1.236;2022-09-03T11:18:23;25.70;99.90
34768;DHT22;21755;43.608;1.236;2022-09-03T11:20:52;25.40;99.90
34768;DHT22;21755;43.608;1.236;2022-09-03T11:23:21;25.30;99.90
34768;DHT22;21755;43.608;1.236;2022-09-03T11:25:53;25.60;99.90
34768;DHT22;21755;43.608;1.236;2022-09-03T11:31:19;25.40;99.90
34768;DHT22;21755;43.608;1.236;2022-09-03T11:33:53;25.20;99.90
34768;DHT22;21755;43.608;1.236;2022-09-03T11:36:34;24.90;99.90
34768;DHT22;21755;43.608;1.236;2022-09-03T11:39:18;25.30;99.90
34768;DHT22;21755;43.608;1.236;2022-09-03T11:42:03;25.80;99.90
34768;DHT22;21755;43.608;1.236;2022-09-03T11:44:41;25.70;99.90
34768;DHT22;21755;43.608;1.236;2022-09-03T11:47:43;25.70;99.90
34768;DHT22;21755;43.608;1.236;2022-09-03T11:50:27;25.70;99.90
34768;DHT22;21755;43.608;1.236;2022-09-03T11:58:32;25.60;99.90
34768;DHT22;21755;43.608;1.236;2022-09-03T12:01:01;25.60;99.90
34768;DHT22;21755;43.608;1.236;2022-09-03T12:03:46;25.60;99.90
34768;DHT22;21755;43.608;1.236;2022-09-03T12:11:40;25.80;99.90
34768;DHT22;21755;43.608;1.236;2022-09-03T12:17:18;26.20;99.90
34768;DHT22;21755;43.608;1.236;2022-09-03T12:19:51;26.50;99.90
34768;DHT22;21755;43.608;1.236;2022-09-03T12:22:19;26.30;99.90
34768;DHT22;21755;43.608;1.236;2022-09-03T12:24:45;26.10;99.90
34768;DHT22;21755;43.608;1.236;2022-09-03T12:27:15;26.20;99.90
34768;DHT22;21755;43.608;1.236;2022-09-03T12:30:00;26.10;99.90
34768;DHT22;21755;43.608;1.236;2022-09-03T12:32:29;26.50;99.90
34768;DHT22;21755;43.608;1.236;2022-09-03T12:35:13;26.70;99.90
34768;DHT22;21755;43.608;1.236;2022-09-03T12:37:42;27.00;99.90
34768;DHT22;21755;43.608;1.236;2022-09-03T12:40:24;27.10;99.90
34768;DHT22;21755;43.608;1.236;2022-09-03T12:42:51;27.30;99.90
34768;DHT22;21755;43.608;1.236;2022-09-03T12:45:25;27.20;99.90
34768;DHT22;21755;43.608;1.236;2022-09-03T12:47:52;26.90;99.90
34768;DHT22;21755;43.608;1.236;2022-09-03T12:50:20;26.80;99.90
34768;DHT22;21755;43.608;1.236;2022-09-03T12:55:38;26.30;99.90
34768;DHT22;21755;43.608;1.236;2022-09-03T12:58:22;26.00;99.90
34768;DHT22;21755;43.608;1.236;2022-09-03T13:01:08;25.70;99.90
34768;DHT22;21755;43.608;1.236;2022-09-03T13:06:19;25.80;99.90
34768;DHT22;21755;43.608;1.236;2022-09-03T13:08:47;26.10;99.90
34768;DHT22;21755;43.608;1.236;2022-09-03T13:11:21;26.10;99.90
34768;DHT22;21755;43.608;1.236;2022-09-03T13:13:59;26.10;99.90
34768;DHT22;21755;43.608;1.236;2022-09-03T13:16:42;26.10;99.90
34768;DHT22;21755;43.608;1.236;2022-09-03T13:22:12;26.90;99.90
34768;DHT22;21755;43.608;1.236;2022-09-03T13:27:51;27.10;99.90
34768;DHT22;21755;43.608;1.236;2022-09-03T13:30:21;27.10;99.90
34768;DHT22;21755;43.608;1.236;2022-09-03T13:33:31;27.10;99.90
34768;DHT22;21755;43.608;1.236;2022-09-03T13:36:20;27.40;99.90
34768;DHT22;21755;43.608;1.236;2022-09-03T13:38:59;27.30;99.90
34768;DHT22;21755;43.608;1.236;2022-09-03T13:41:47;27.10;99.90
34768;DHT22;21755;43.608;1.236;2022-09-03T13:51:10;26.70;99.90
34768;DHT22;21755;43.608;1.236;2022-09-03T13:56:28;26.80;99.90
34768;DHT22;21755;43.608;1.236;2022-09-03T13:59:06;26.80;99.90
34768;DHT22;21755;43.608;1.236;2022-09-03T14:01:42;26.70;99.90
34768;DHT22;21755;43.608;1.236;2022-09-03T14:04:21;26.60;99.90
34768;DHT22;21755;43.608;1.236;2022-09-03T14:07:07;26.60;99.90
34768;DHT22;21755;43.608;1.236;2022-09-03T14:10:05;26.60;99.90
34768;DHT22;21755;43.608;1.236;2022-09-03T14:12:49;26.60;99.90
34768;DHT22;21755;43.608;1.236;2022-09-03T14:20:53;26.20;99.90
34768;DHT22;21755;43.608;1.236;2022-09-03T14:26:56;26.50;99.90
34768;DHT22;21755;43.608;1.236;2022-09-03T14:29:28;26.50;99.90
34768;DHT22;21755;43.608;1.236;2022-09-03T14:42:56;26.90;99.90
34768;DHT22;21755;43.608;1.236;2022-09-03T14:48:20;26.90;99.90
34768;DHT22;21755;43.608;1.236;2022-09-03T15:08:12;26.20;99.90
34768;DHT22;21755;43.608;1.236;2022-09-03T15:11:02;26.10;99.90
34768;DHT22;21755;43.608;1.236;2022-09-03T15:13:33;26.10;99.90
34768;DHT22;21755;43.608;1.236;2022-09-03T15:18:51;26.00;99.90
34768;DHT22;21755;43.608;1.236;2022-09-03T15:24:04;26.50;99.90
34768;DHT22;21755;43.608;1.236;2022-09-03T15:26:54;26.60;99.90
34768;DHT22;21755;43.608;1.236;2022-09-03T15:29:24;26.70;99.90
34768;DHT22;21755;43.608;1.236;2022-09-03T15:38:09;27.10;99.90
34768;DHT22;21755;43.608;1.236;2022-09-03T15:40:45;27.00;99.90
34768;DHT22;21755;43.608;1.236;2022-09-03T15:43:19;27.00;99.90
34768;DHT22;21755;43.608;1.236;2022-09-03T15:51:08;27.10;99.90
34768;DHT22;21755;43.608;1.236;2022-09-03T15:53:53;27.30;99.90
34768;DHT22;21755;43.608;1.236;2022-09-03T15:56:35;27.30;99.90
34768;DHT22;21755;43.608;1.236;2022-09-03T15:59:20;27.40;99.90
34768;DHT22;21755;43.608;1.236;2022-09-03T16:02:17;27.30;99.90
34768;DHT22;21755;43.608;1.236;2022-09-03T16:05:15;27.10;99.90
34768;DHT22;21755;43.608;1.236;2022-09-03T16:10:51;26.80;99.90
34768;DHT22;21755;43.608;1.236;2022-09-03T16:13:39;26.70;99.90
34768;DHT22;21755;43.608;1.236;2022-09-03T16:16:38;26.60;99.90
34768;DHT22;21755;43.608;1.236;2022-09-03T16:25:30;26.80;99.90
34768;DHT22;21755;43.608;1.236;2022-09-03T16:28:09;26.80;99.90
34768;DHT22;21755;43.608;1.236;2022-09-03T16:39:21;26.90;99.90
34768;DHT22;21755;43.608;1.236;2022-09-03T16:44:53;26.90;99.90
34768;DHT22;21755;43.608;1.236;2022-09-03T16:58:52;26.70;99.90
34768;DHT22;21755;43.608;1.236;2022-09-03T17:13:08;26.70;99.90
34768;DHT22;21755;43.608;1.236;2022-09-03T17:15:31;26.70;99.90
34768;DHT22;21755;43.608;1.236;2022-09-03T17:18:11;26.60;99.90
34768;DHT22;21755;43.608;1.236;2022-09-03T17:29:12;26.60;99.90
34768;DHT22;21755;43.608;1.236;2022-09-03T17:35:02;26.50;99.90
34768;DHT22;21755;43.608;1.236;2022-09-03T17:37:46;26.40;99.90
34768;DHT22;21755;43.608;1.236;2022-09-03T17:43:22;26.40;99.90
34768;DHT22;21755;43.608;1.236;2022-09-03T17:49:00;26.30;99.90
34768;DHT22;21755;43.608;1.236;2022-09-03T17:54:14;26.30;99.90
34768;DHT22;21755;43.608;1.236;2022-09-03T17:59:29;26.10;99.90
34768;DHT22;21755;43.608;1.236;2022-09-03T18:02:07;26.00;99.90
34768;DHT22;21755;43.608;1.236;2022-09-03T18:04:41;25.90;99.90
34768;DHT22;21755;43.608;1.236;2022-09-03T18:07:42;25.90;99.90
34768;DHT22;21755;43.608;1.236;2022-09-03T18:13:13;25.70;99.90
34768;DHT22;21755;43.608;1.236;2022-09-03T18:16:18;25.70;99.90
34768;DHT22;21755;43.608;1.236;2022-09-03T18:18:49;25.70;99.90
34768;DHT22;21755;43.608;1.236;2022-09-03T18:21:23;25.60;99.90
34768;DHT22;21755;43.608;1.236;2022-09-03T18:24:50;25.50;99.90
34768;DHT22;21755;43.608;1.236;2022-09-03T18:27:50;25.50;99.90
34768;DHT22;21755;43.608;1.236;2022-09-03T18:30:37;25.50;99.90
34768;DHT22;21755;43.608;1.236;2022-09-03T18:33:23;25.30;99.90
34768;DHT22;21755;43.608;1.236;2022-09-03T18:36:09;25.30;99.90
34768;DHT22;21755;43.608;1.236;2022-09-03T18:39:09;25.20;99.90
34768;DHT22;21755;43.608;1.236;2022-09-03T18:42:48;25.10;99.90
34768;DHT22;21755;43.608;1.236;2022-09-03T18:48:35;25.00;99.90
34768;DHT22;21755;43.608;1.236;2022-09-03T19:07:34;24.20;99.90
34768;DHT22;21755;43.608;1.236;2022-09-03T19:13:41;24.00;99.90
34768;DHT22;21755;43.608;1.236;2022-09-03T19:22:11;23.80;99.90
34768;DHT22;21755;43.608;1.236;2022-09-03T19:25:04;23.70;99.90
34768;DHT22;21755;43.608;1.236;2022-09-03T19:37:56;23.50;99.90
34768;DHT22;21755;43.608;1.236;2022-09-03T19:41:24;23.50;99.90
34768;DHT22;21755;43.608;1.236;2022-09-03T19:47:39;23.20;99.90
34768;DHT22;21755;43.608;1.236;2022-09-03T19:50:29;23.20;99.90
34768;DHT22;21755;43.608;1.236;2022-09-03T19:53:18;23.30;99.90
34768;DHT22;21755;43.608;1.236;2022-09-03T19:56:24;23.30;99.90
34768;DHT22;21755;43.608;1.236;2022-09-03T19:59:19;23.20;99.90
34768;DHT22;21755;43.608;1.236;2022-09-03T20:02:04;23.00;99.90
34768;DHT22;21755;43.608;1.236;2022-09-03T20:04:59;23.00;99.90
34768;DHT22;21755;43.608;1.236;2022-09-03T20:07:50;23.00;99.90
34768;DHT22;21755;43.608;1.236;2022-09-03T20:10:37;23.00;99.90
34768;DHT22;21755;43.608;1.236;2022-09-03T20:13:16;23.00;99.90
34768;DHT22;21755;43.608;1.236;2022-09-03T20:15:58;23.00;99.90
34768;DHT22;21755;43.608;1.236;2022-09-03T20:38:09;22.40;99.90
34768;DHT22;21755;43.608;1.236;2022-09-03T20:40:54;22.30;99.90
34768;DHT22;21755;43.608;1.236;2022-09-03T20:43:59;22.40;99.90
34768;DHT22;21755;43.608;1.236;2022-09-03T20:51:50;22.20;99.90
34768;DHT22;21755;43.608;1.236;2022-09-03T20:54:28;22.20;99.90
34768;DHT22;21755;43.608;1.236;2022-09-03T20:57:39;22.20;99.90
34768;DHT22;21755;43.608;1.236;2022-09-03T21:00:14;22.10;99.90
34768;DHT22;21755;43.608;1.236;2022-09-03T21:22:26;21.60;99.90
34768;DHT22;21755;43.608;1.236;2022-09-03T21:25:36;21.60;99.90
34768;DHT22;21755;43.608;1.236;2022-09-03T21:28:10;21.50;99.90
34768;DHT22;21755;43.608;1.236;2022-09-03T21:30:41;21.50;99.90
34768;DHT22;21755;43.608;1.236;2022-09-03T21:33:15;21.50;99.90
34768;DHT22;21755;43.608;1.236;2022-09-03T21:35:52;21.50;99.90
34768;DHT22;21755;43.608;1.236;2022-09-03T21:38:26;21.50;99.90
34768;DHT22;21755;43.608;1.236;2022-09-03T21:46:28;21.30;99.90
34768;DHT22;21755;43.608;1.236;2022-09-03T21:49:11;21.30;99.90
34768;DHT22;21755;43.608;1.236;2022-09-03T21:54:37;21.30;99.90
34768;DHT22;21755;43.608;1.236;2022-09-03T22:02:27;21.20;99.90
34768;DHT22;21755;43.608;1.236;2022-09-03T22:04:55;21.10;99.90
34768;DHT22;21755;43.608;1.236;2022-09-03T22:10:23;21.00;99.90
34768;DHT22;21755;43.608;1.236;2022-09-03T22:15:43;20.80;99.90
34768;DHT22;21755;43.608;1.236;2022-09-03T22:21:09;20.80;99.90
34768;DHT22;21755;43.608;1.236;2022-09-03T22:40:51;20.60;99.90
34768;DHT22;21755;43.608;1.236;2022-09-03T22:43:34;20.60;99.90
34768;DHT22;21755;43.608;1.236;2022-09-03T22:46:09;20.60;99.90
34768;DHT22;21755;43.608;1.236;2022-09-03T22:51:05;20.70;99.90
34768;DHT22;21755;43.608;1.236;2022-09-03T22:54:06;20.70;99.90